Terminal Aerodrome Forecast
Issued by NWS

Home | Current Version | Previous Version | Text Only | Print | Product List | Glossary On
Versions: 1 2 3 4 5 6 7 8 9 10 11 12 13
000
FTUS43 KDTX 032320
TAFMBS
TAF
KMBS 032320Z 0400/0424 20010KT P6SM SCT080 BKN250
     FM040500 21010KT P6SM BKN080 OVC120
     FM041000 23012KT 5SM -SHRA BKN050 OVC100
     FM041400 23012G20KT 3SM -SHRA SCT025 BKN040
     FM041800 25010KT P6SM SCT040 BKN080=

USA.gov is the U.S. government's official web portal to all federal, state and local government web resources and services.